sensor_id;sensor_type;location;lat;lon;timestamp;P1;durP1;ratioP1;P2;durP2;ratioP2
68940;SDS011;55982;51.476;7.552;2022-08-21T00:01:01;17.88;;;6.57;;
68940;SDS011;55982;51.476;7.552;2022-08-21T00:03:31;12.77;;;6.47;;
68940;SDS011;55982;51.476;7.552;2022-08-21T00:05:56;15.32;;;6.22;;
68940;SDS011;55982;51.476;7.552;2022-08-21T00:08:21;19.75;;;6.65;;
68940;SDS011;55982;51.476;7.552;2022-08-21T00:10:47;15.93;;;6.40;;
68940;SDS011;55982;51.476;7.552;2022-08-21T00:13:14;11.15;;;5.90;;
68940;SDS011;55982;51.476;7.552;2022-08-21T00:15:40;12.70;;;6.55;;
68940;SDS011;55982;51.476;7.552;2022-08-21T00:18:07;10.25;;;5.55;;
68940;SDS011;55982;51.476;7.552;2022-08-21T00:20:36;12.40;;;6.18;;
68940;SDS011;55982;51.476;7.552;2022-08-21T00:23:03;12.43;;;5.90;;
68940;SDS011;55982;51.476;7.552;2022-08-21T00:25:29;10.93;;;5.60;;
68940;SDS011;55982;51.476;7.552;2022-08-21T00:27:55;13.73;;;6.72;;
68940;SDS011;55982;51.476;7.552;2022-08-21T00:30:21;14.00;;;6.57;;
68940;SDS011;55982;51.476;7.552;2022-08-21T00:32:49;14.57;;;6.22;;
68940;SDS011;55982;51.476;7.552;2022-08-21T00:35:17;11.98;;;5.85;;
68940;SDS011;55982;51.476;7.552;2022-08-21T00:37:43;10.73;;;5.68;;
68940;SDS011;55982;51.476;7.552;2022-08-21T00:40:11;11.15;;;5.55;;
68940;SDS011;55982;51.476;7.552;2022-08-21T00:42:39;10.38;;;5.57;;
68940;SDS011;55982;51.476;7.552;2022-08-21T00:45:05;11.27;;;6.22;;
68940;SDS011;55982;51.476;7.552;2022-08-21T00:47:32;14.23;;;6.00;;
68940;SDS011;55982;51.476;7.552;2022-08-21T00:49:57;12.18;;;6.15;;
68940;SDS011;55982;51.476;7.552;2022-08-21T00:52:24;16.30;;;6.57;;
68940;SDS011;55982;51.476;7.552;2022-08-21T00:54:54;9.90;;;6.20;;
68940;SDS011;55982;51.476;7.552;2022-08-21T00:57:24;15.73;;;6.35;;
68940;SDS011;55982;51.476;7.552;2022-08-21T00:59:58;17.15;;;6.25;;
68940;SDS011;55982;51.476;7.552;2022-08-21T01:02:29;14.02;;;6.68;;
68940;SDS011;55982;51.476;7.552;2022-08-21T01:04:54;17.70;;;6.78;;
68940;SDS011;55982;51.476;7.552;2022-08-21T01:07:19;15.00;;;7.43;;
68940;SDS011;55982;51.476;7.552;2022-08-21T01:09:48;16.75;;;7.75;;
68940;SDS011;55982;51.476;7.552;2022-08-21T01:12:14;18.08;;;8.15;;
68940;SDS011;55982;51.476;7.552;2022-08-21T01:14:40;18.67;;;8.85;;
68940;SDS011;55982;51.476;7.552;2022-08-21T01:17:08;20.67;;;8.80;;
68940;SDS011;55982;51.476;7.552;2022-08-21T01:19:35;15.38;;;8.63;;
68940;SDS011;55982;51.476;7.552;2022-08-21T01:22:00;16.90;;;7.97;;
68940;SDS011;55982;51.476;7.552;2022-08-21T01:24:27;18.95;;;9.05;;
68940;SDS011;55982;51.476;7.552;2022-08-21T01:26:53;15.52;;;9.00;;
68940;SDS011;55982;51.476;7.552;2022-08-21T01:29:38;16.38;;;8.77;;
68940;SDS011;55982;51.476;7.552;2022-08-21T01:32:11;20.20;;;9.15;;
68940;SDS011;55982;51.476;7.552;2022-08-21T01:34:40;15.02;;;8.77;;
68940;SDS011;55982;51.476;7.552;2022-08-21T01:37:09;17.33;;;9.15;;
68940;SDS011;55982;51.476;7.552;2022-08-21T01:39:35;12.52;;;7.95;;
68940;SDS011;55982;51.476;7.552;2022-08-21T01:42:01;18.58;;;9.00;;
68940;SDS011;55982;51.476;7.552;2022-08-21T01:44:27;18.95;;;8.73;;
68940;SDS011;55982;51.476;7.552;2022-08-21T01:46:53;14.00;;;8.15;;
68940;SDS011;55982;51.476;7.552;2022-08-21T01:49:19;16.35;;;8.80;;
68940;SDS011;55982;51.476;7.552;2022-08-21T01:51:44;18.45;;;8.57;;
68940;SDS011;55982;51.476;7.552;2022-08-21T01:54:10;16.52;;;9.85;;
68940;SDS011;55982;51.476;7.552;2022-08-21T01:56:40;17.30;;;9.85;;
68940;SDS011;55982;51.476;7.552;2022-08-21T01:59:08;19.55;;;9.68;;
68940;SDS011;55982;51.476;7.552;2022-08-21T02:01:34;22.80;;;10.90;;
68940;SDS011;55982;51.476;7.552;2022-08-21T02:04:00;23.30;;;10.88;;
68940;SDS011;55982;51.476;7.552;2022-08-21T02:06:26;19.02;;;10.90;;
68940;SDS011;55982;51.476;7.552;2022-08-21T02:08:52;20.48;;;10.95;;
68940;SDS011;55982;51.476;7.552;2022-08-21T02:11:17;19.08;;;11.68;;
68940;SDS011;55982;51.476;7.552;2022-08-21T02:13:43;19.23;;;11.13;;
68940;SDS011;55982;51.476;7.552;2022-08-21T02:16:09;20.77;;;11.38;;
68940;SDS011;55982;51.476;7.552;2022-08-21T02:18:34;16.00;;;10.43;;
68940;SDS011;55982;51.476;7.552;2022-08-21T02:21:00;27.83;;;11.02;;
68940;SDS011;55982;51.476;7.552;2022-08-21T02:23:25;19.70;;;9.95;;
68940;SDS011;55982;51.476;7.552;2022-08-21T02:25:51;19.73;;;10.57;;
68940;SDS011;55982;51.476;7.552;2022-08-21T02:28:17;18.20;;;10.40;;
68940;SDS011;55982;51.476;7.552;2022-08-21T02:30:44;19.85;;;10.85;;
68940;SDS011;55982;51.476;7.552;2022-08-21T02:33:10;22.05;;;10.38;;
68940;SDS011;55982;51.476;7.552;2022-08-21T02:35:37;17.85;;;10.77;;
68940;SDS011;55982;51.476;7.552;2022-08-21T02:38:08;21.55;;;10.38;;
68940;SDS011;55982;51.476;7.552;2022-08-21T02:40:37;19.70;;;10.68;;
68940;SDS011;55982;51.476;7.552;2022-08-21T02:43:05;21.13;;;11.57;;
68940;SDS011;55982;51.476;7.552;2022-08-21T02:45:31;16.45;;;10.82;;
68940;SDS011;55982;51.476;7.552;2022-08-21T02:47:59;18.27;;;10.32;;
68940;SDS011;55982;51.476;7.552;2022-08-21T02:50:28;19.70;;;10.35;;
68940;SDS011;55982;51.476;7.552;2022-08-21T02:52:59;16.98;;;9.95;;
68940;SDS011;55982;51.476;7.552;2022-08-21T02:55:26;16.90;;;11.05;;
68940;SDS011;55982;51.476;7.552;2022-08-21T02:57:54;17.45;;;11.10;;
68940;SDS011;55982;51.476;7.552;2022-08-21T03:00:20;18.00;;;11.50;;
68940;SDS011;55982;51.476;7.552;2022-08-21T03:02:47;21.58;;;11.93;;
68940;SDS011;55982;51.476;7.552;2022-08-21T03:05:13;19.15;;;11.85;;
68940;SDS011;55982;51.476;7.552;2022-08-21T03:07:40;26.48;;;11.95;;
68940;SDS011;55982;51.476;7.552;2022-08-21T03:10:06;21.08;;;11.70;;
68940;SDS011;55982;51.476;7.552;2022-08-21T03:12:32;22.90;;;11.55;;
68940;SDS011;55982;51.476;7.552;2022-08-21T03:15:00;22.80;;;12.73;;
68940;SDS011;55982;51.476;7.552;2022-08-21T03:17:29;21.08;;;12.82;;
68940;SDS011;55982;51.476;7.552;2022-08-21T03:19:55;17.75;;;12.27;;
68940;SDS011;55982;51.476;7.552;2022-08-21T03:22:21;20.88;;;12.95;;
68940;SDS011;55982;51.476;7.552;2022-08-21T03:24:46;22.90;;;11.90;;
68940;SDS011;55982;51.476;7.552;2022-08-21T03:27:12;22.67;;;12.45;;
68940;SDS011;55982;51.476;7.552;2022-08-21T03:29:38;20.60;;;11.77;;
68940;SDS011;55982;51.476;7.552;2022-08-21T03:32:03;20.58;;;12.38;;
68940;SDS011;55982;51.476;7.552;2022-08-21T03:34:29;20.95;;;12.68;;
68940;SDS011;55982;51.476;7.552;2022-08-21T03:36:54;20.65;;;12.77;;
68940;SDS011;55982;51.476;7.552;2022-08-21T03:39:21;18.85;;;12.40;;
68940;SDS011;55982;51.476;7.552;2022-08-21T03:41:46;21.75;;;12.57;;
68940;SDS011;55982;51.476;7.552;2022-08-21T03:44:12;25.92;;;13.38;;
68940;SDS011;55982;51.476;7.552;2022-08-21T03:46:38;27.67;;;13.13;;
68940;SDS011;55982;51.476;7.552;2022-08-21T03:49:05;22.67;;;13.30;;
68940;SDS011;55982;51.476;7.552;2022-08-21T03:51:30;24.83;;;13.63;;
68940;SDS011;55982;51.476;7.552;2022-08-21T03:53:57;23.13;;;13.30;;
68940;SDS011;55982;51.476;7.552;2022-08-21T03:56:22;23.52;;;13.13;;
68940;SDS011;55982;51.476;7.552;2022-08-21T03:58:48;21.45;;;13.15;;
68940;SDS011;55982;51.476;7.552;2022-08-21T04:01:14;23.95;;;13.50;;
68940;SDS011;55982;51.476;7.552;2022-08-21T04:03:40;21.95;;;13.13;;
68940;SDS011;55982;51.476;7.552;2022-08-21T04:06:05;22.13;;;13.15;;
68940;SDS011;55982;51.476;7.552;2022-08-21T04:08:31;22.95;;;13.20;;
68940;SDS011;55982;51.476;7.552;2022-08-21T04:10:57;23.05;;;14.68;;
68940;SDS011;55982;51.476;7.552;2022-08-21T04:13:23;20.00;;;13.52;;
68940;SDS011;55982;51.476;7.552;2022-08-21T04:15:49;24.17;;;13.27;;
68940;SDS011;55982;51.476;7.552;2022-08-21T04:18:15;22.95;;;13.48;;
68940;SDS011;55982;51.476;7.552;2022-08-21T04:20:40;23.92;;;13.48;;
68940;SDS011;55982;51.476;7.552;2022-08-21T04:23:08;23.52;;;13.32;;
68940;SDS011;55982;51.476;7.552;2022-08-21T04:25:33;24.55;;;13.98;;
68940;SDS011;55982;51.476;7.552;2022-08-21T04:27:59;24.73;;;15.48;;
68940;SDS011;55982;51.476;7.552;2022-08-21T04:30:24;21.33;;;14.57;;
68940;SDS011;55982;51.476;7.552;2022-08-21T04:32:51;23.20;;;13.90;;
68940;SDS011;55982;51.476;7.552;2022-08-21T04:35:18;25.35;;;15.00;;
68940;SDS011;55982;51.476;7.552;2022-08-21T04:37:45;31.60;;;15.45;;
68940;SDS011;55982;51.476;7.552;2022-08-21T04:40:12;24.42;;;14.25;;
68940;SDS011;55982;51.476;7.552;2022-08-21T04:42:44;22.13;;;14.00;;
68940;SDS011;55982;51.476;7.552;2022-08-21T04:45:22;21.05;;;14.40;;
68940;SDS011;55982;51.476;7.552;2022-08-21T04:47:53;22.50;;;13.63;;
68940;SDS011;55982;51.476;7.552;2022-08-21T04:53:09;23.63;;;15.05;;
68940;SDS011;55982;51.476;7.552;2022-08-21T04:55:37;21.15;;;13.35;;
68940;SDS011;55982;51.476;7.552;2022-08-21T04:58:04;19.48;;;13.07;;
68940;SDS011;55982;51.476;7.552;2022-08-21T05:00:32;27.83;;;13.00;;
68940;SDS011;55982;51.476;7.552;2022-08-21T05:02:58;19.73;;;12.18;;
68940;SDS011;55982;51.476;7.552;2022-08-21T05:05:27;23.40;;;12.52;;
68940;SDS011;55982;51.476;7.552;2022-08-21T05:07:54;21.10;;;11.85;;
68940;SDS011;55982;51.476;7.552;2022-08-21T05:10:21;22.73;;;11.88;;
68940;SDS011;55982;51.476;7.552;2022-08-21T05:12:47;35.25;;;12.45;;
68940;SDS011;55982;51.476;7.552;2022-08-21T05:15:13;26.02;;;12.50;;
68940;SDS011;55982;51.476;7.552;2022-08-21T05:17:42;19.10;;;11.38;;
68940;SDS011;55982;51.476;7.552;2022-08-21T05:20:10;22.55;;;11.20;;
68940;SDS011;55982;51.476;7.552;2022-08-21T05:22:37;19.00;;;11.98;;
68940;SDS011;55982;51.476;7.552;2022-08-21T05:25:03;22.35;;;11.35;;
68940;SDS011;55982;51.476;7.552;2022-08-21T05:27:29;22.25;;;12.30;;
68940;SDS011;55982;51.476;7.552;2022-08-21T05:29:56;20.73;;;10.68;;
68940;SDS011;55982;51.476;7.552;2022-08-21T05:32:22;16.77;;;10.60;;
68940;SDS011;55982;51.476;7.552;2022-08-21T05:34:47;22.15;;;11.30;;
68940;SDS011;55982;51.476;7.552;2022-08-21T05:37:13;18.35;;;10.05;;
68940;SDS011;55982;51.476;7.552;2022-08-21T05:39:38;18.45;;;11.30;;
68940;SDS011;55982;51.476;7.552;2022-08-21T05:42:04;20.40;;;10.15;;
68940;SDS011;55982;51.476;7.552;2022-08-21T05:44:30;25.77;;;9.70;;
68940;SDS011;55982;51.476;7.552;2022-08-21T05:47:02;21.35;;;10.25;;
68940;SDS011;55982;51.476;7.552;2022-08-21T05:49:32;17.92;;;9.75;;
68940;SDS011;55982;51.476;7.552;2022-08-21T05:51:58;17.25;;;9.43;;
68940;SDS011;55982;51.476;7.552;2022-08-21T05:54:23;15.50;;;9.40;;
68940;SDS011;55982;51.476;7.552;2022-08-21T05:56:48;18.65;;;8.65;;
68940;SDS011;55982;51.476;7.552;2022-08-21T05:59:14;23.63;;;9.07;;
68940;SDS011;55982;51.476;7.552;2022-08-21T06:01:39;15.95;;;9.50;;
68940;SDS011;55982;51.476;7.552;2022-08-21T06:04:05;16.83;;;9.00;;
68940;SDS011;55982;51.476;7.552;2022-08-21T06:06:32;19.35;;;9.13;;
68940;SDS011;55982;51.476;7.552;2022-08-21T06:08:58;19.35;;;8.60;;
68940;SDS011;55982;51.476;7.552;2022-08-21T06:11:23;15.40;;;7.75;;
68940;SDS011;55982;51.476;7.552;2022-08-21T06:13:48;15.63;;;8.60;;
68940;SDS011;55982;51.476;7.552;2022-08-21T06:16:14;15.45;;;8.25;;
68940;SDS011;55982;51.476;7.552;2022-08-21T06:18:41;19.35;;;8.20;;
68940;SDS011;55982;51.476;7.552;2022-08-21T06:21:09;14.60;;;8.15;;
68940;SDS011;55982;51.476;7.552;2022-08-21T06:23:36;15.13;;;8.30;;
68940;SDS011;55982;51.476;7.552;2022-08-21T06:26:03;18.70;;;8.90;;
68940;SDS011;55982;51.476;7.552;2022-08-21T06:28:30;11.77;;;7.82;;
68940;SDS011;55982;51.476;7.552;2022-08-21T06:30:57;15.85;;;8.20;;
68940;SDS011;55982;51.476;7.552;2022-08-21T06:33:22;11.90;;;7.63;;
68940;SDS011;55982;51.476;7.552;2022-08-21T06:35:48;11.85;;;7.45;;
68940;SDS011;55982;51.476;7.552;2022-08-21T06:38:14;17.48;;;8.00;;
68940;SDS011;55982;51.476;7.552;2022-08-21T06:40:40;14.80;;;7.00;;
68940;SDS011;55982;51.476;7.552;2022-08-21T06:43:09;13.20;;;7.22;;
68940;SDS011;55982;51.476;7.552;2022-08-21T06:45:39;13.20;;;6.47;;
68940;SDS011;55982;51.476;7.552;2022-08-21T06:48:05;13.70;;;6.75;;
68940;SDS011;55982;51.476;7.552;2022-08-21T06:50:34;13.13;;;6.65;;
68940;SDS011;55982;51.476;7.552;2022-08-21T06:53:05;10.52;;;6.82;;
68940;SDS011;55982;51.476;7.552;2022-08-21T06:55:38;10.93;;;6.20;;
68940;SDS011;55982;51.476;7.552;2022-08-21T06:58:05;12.05;;;6.57;;
68940;SDS011;55982;51.476;7.552;2022-08-21T07:00:31;11.02;;;6.70;;
68940;SDS011;55982;51.476;7.552;2022-08-21T07:02:57;12.50;;;7.20;;
68940;SDS011;55982;51.476;7.552;2022-08-21T07:05:25;12.43;;;6.97;;
68940;SDS011;55982;51.476;7.552;2022-08-21T07:07:51;16.17;;;8.00;;
68940;SDS011;55982;51.476;7.552;2022-08-21T07:10:16;11.75;;;7.40;;
68940;SDS011;55982;51.476;7.552;2022-08-21T07:12:42;14.73;;;7.30;;
68940;SDS011;55982;51.476;7.552;2022-08-21T07:15:07;17.15;;;6.95;;
68940;SDS011;55982;51.476;7.552;2022-08-21T07:17:33;17.95;;;7.03;;
68940;SDS011;55982;51.476;7.552;2022-08-21T07:19:59;11.15;;;5.97;;
68940;SDS011;55982;51.476;7.552;2022-08-21T07:22:24;7.13;;;5.78;;
68940;SDS011;55982;51.476;7.552;2022-08-21T07:24:52;14.15;;;6.10;;
68940;SDS011;55982;51.476;7.552;2022-08-21T07:27:18;11.63;;;6.03;;
68940;SDS011;55982;51.476;7.552;2022-08-21T07:29:44;12.05;;;5.47;;
68940;SDS011;55982;51.476;7.552;2022-08-21T07:32:09;12.07;;;5.63;;
68940;SDS011;55982;51.476;7.552;2022-08-21T07:34:34;10.73;;;5.45;;
68940;SDS011;55982;51.476;7.552;2022-08-21T07:37:00;11.30;;;5.10;;
68940;SDS011;55982;51.476;7.552;2022-08-21T07:39:25;9.57;;;5.30;;
68940;SDS011;55982;51.476;7.552;2022-08-21T07:41:51;10.57;;;4.80;;
68940;SDS011;55982;51.476;7.552;2022-08-21T07:44:16;10.23;;;5.50;;
68940;SDS011;55982;51.476;7.552;2022-08-21T07:46:42;10.65;;;5.35;;
68940;SDS011;55982;51.476;7.552;2022-08-21T07:49:07;9.15;;;5.38;;
68940;SDS011;55982;51.476;7.552;2022-08-21T07:51:33;13.10;;;6.22;;
68940;SDS011;55982;51.476;7.552;2022-08-21T07:53:58;14.10;;;6.65;;
68940;SDS011;55982;51.476;7.552;2022-08-21T07:56:24;14.07;;;6.90;;
68940;SDS011;55982;51.476;7.552;2022-08-21T07:58:50;15.40;;;7.13;;
68940;SDS011;55982;51.476;7.552;2022-08-21T08:01:16;15.98;;;6.78;;
68940;SDS011;55982;51.476;7.552;2022-08-21T08:03:42;18.60;;;7.07;;
68940;SDS011;55982;51.476;7.552;2022-08-21T08:06:08;11.07;;;6.60;;
68940;SDS011;55982;51.476;7.552;2022-08-21T08:08:37;12.60;;;6.65;;
68940;SDS011;55982;51.476;7.552;2022-08-21T08:11:06;10.85;;;6.05;;
68940;SDS011;55982;51.476;7.552;2022-08-21T08:13:37;11.23;;;6.18;;
68940;SDS011;55982;51.476;7.552;2022-08-21T08:16:04;13.10;;;6.13;;
68940;SDS011;55982;51.476;7.552;2022-08-21T08:18:30;11.98;;;6.03;;
68940;SDS011;55982;51.476;7.552;2022-08-21T08:20:55;13.80;;;5.88;;
68940;SDS011;55982;51.476;7.552;2022-08-21T08:23:21;15.13;;;6.30;;
68940;SDS011;55982;51.476;7.552;2022-08-21T08:25:47;14.80;;;5.93;;
68940;SDS011;55982;51.476;7.552;2022-08-21T08:28:13;11.27;;;5.78;;
68940;SDS011;55982;51.476;7.552;2022-08-21T08:30:38;13.10;;;5.88;;
68940;SDS011;55982;51.476;7.552;2022-08-21T08:33:03;10.15;;;5.45;;
68940;SDS011;55982;51.476;7.552;2022-08-21T08:35:29;14.40;;;5.82;;
68940;SDS011;55982;51.476;7.552;2022-08-21T08:37:54;10.85;;;4.63;;
68940;SDS011;55982;51.476;7.552;2022-08-21T08:43:25;11.77;;;5.38;;
68940;SDS011;55982;51.476;7.552;2022-08-21T08:45:53;10.85;;;4.78;;
68940;SDS011;55982;51.476;7.552;2022-08-21T08:48:52;12.25;;;4.80;;
68940;SDS011;55982;51.476;7.552;2022-08-21T08:51:18;10.90;;;4.65;;
68940;SDS011;55982;51.476;7.552;2022-08-21T08:53:50;13.85;;;4.80;;
68940;SDS011;55982;51.476;7.552;2022-08-21T08:56:29;12.63;;;5.13;;
68940;SDS011;55982;51.476;7.552;2022-08-21T08:58:59;11.50;;;4.90;;
68940;SDS011;55982;51.476;7.552;2022-08-21T09:01:39;10.07;;;4.97;;
68940;SDS011;55982;51.476;7.552;2022-08-21T09:04:05;15.60;;;5.22;;
68940;SDS011;55982;51.476;7.552;2022-08-21T09:12:29;8.38;;;4.30;;
68940;SDS011;55982;51.476;7.552;2022-08-21T09:26:43;9.40;;;3.78;;
68940;SDS011;55982;51.476;7.552;2022-08-21T09:29:14;7.55;;;2.90;;
68940;SDS011;55982;51.476;7.552;2022-08-21T09:31:45;9.98;;;3.03;;
68940;SDS011;55982;51.476;7.552;2022-08-21T09:34:11;11.38;;;3.22;;
68940;SDS011;55982;51.476;7.552;2022-08-21T09:36:40;8.35;;;2.85;;
68940;SDS011;55982;51.476;7.552;2022-08-21T09:39:08;7.90;;;2.22;;
68940;SDS011;55982;51.476;7.552;2022-08-21T09:41:36;6.13;;;2.15;;
68940;SDS011;55982;51.476;7.552;2022-08-21T09:44:04;9.13;;;2.78;;
68940;SDS011;55982;51.476;7.552;2022-08-21T09:46:30;9.55;;;2.92;;
68940;SDS011;55982;51.476;7.552;2022-08-21T09:48:58;10.65;;;2.90;;
68940;SDS011;55982;51.476;7.552;2022-08-21T09:51:29;7.35;;;2.00;;
68940;SDS011;55982;51.476;7.552;2022-08-21T09:56:40;7.28;;;2.75;;
68940;SDS011;55982;51.476;7.552;2022-08-21T09:59:37;5.70;;;2.28;;
68940;SDS011;55982;51.476;7.552;2022-08-21T10:04:58;7.63;;;2.10;;
68940;SDS011;55982;51.476;7.552;2022-08-21T10:07:35;11.00;;;2.58;;
68940;SDS011;55982;51.476;7.552;2022-08-21T10:12:33;7.03;;;2.33;;
68940;SDS011;55982;51.476;7.552;2022-08-21T10:15:20;8.07;;;1.90;;
68940;SDS011;55982;51.476;7.552;2022-08-21T10:17:59;7.55;;;2.65;;
68940;SDS011;55982;51.476;7.552;2022-08-21T10:20:40;7.32;;;2.47;;
68940;SDS011;55982;51.476;7.552;2022-08-21T10:26:38;4.55;;;1.88;;
68940;SDS011;55982;51.476;7.552;2022-08-21T10:29:28;9.20;;;2.50;;
68940;SDS011;55982;51.476;7.552;2022-08-21T10:39:46;7.95;;;2.30;;
68940;SDS011;55982;51.476;7.552;2022-08-21T10:47:35;5.55;;;2.00;;
68940;SDS011;55982;51.476;7.552;2022-08-21T10:50:17;6.70;;;2.10;;
68940;SDS011;55982;51.476;7.552;2022-08-21T10:55:39;7.35;;;2.05;;
68940;SDS011;55982;51.476;7.552;2022-08-21T10:58:13;9.23;;;2.10;;
68940;SDS011;55982;51.476;7.552;2022-08-21T11:00:47;12.05;;;2.53;;
68940;SDS011;55982;51.476;7.552;2022-08-21T11:03:24;7.85;;;2.17;;
68940;SDS011;55982;51.476;7.552;2022-08-21T11:06:00;6.80;;;1.90;;
68940;SDS011;55982;51.476;7.552;2022-08-21T11:08:33;4.88;;;1.65;;
68940;SDS011;55982;51.476;7.552;2022-08-21T11:11:14;5.68;;;1.70;;
68940;SDS011;55982;51.476;7.552;2022-08-21T11:13:47;8.02;;;1.70;;
68940;SDS011;55982;51.476;7.552;2022-08-21T11:18:43;6.63;;;1.70;;
68940;SDS011;55982;51.476;7.552;2022-08-21T11:26:50;5.40;;;1.83;;
68940;SDS011;55982;51.476;7.552;2022-08-21T11:29:31;8.13;;;2.03;;
68940;SDS011;55982;51.476;7.552;2022-08-21T11:34:51;5.68;;;1.88;;
68940;SDS011;55982;51.476;7.552;2022-08-21T11:40:00;6.28;;;2.08;;
68940;SDS011;55982;51.476;7.552;2022-08-21T11:50:38;7.78;;;1.75;;
68940;SDS011;55982;51.476;7.552;2022-08-21T11:53:08;4.43;;;1.58;;
68940;SDS011;55982;51.476;7.552;2022-08-21T11:56:02;4.90;;;1.48;;
68940;SDS011;55982;51.476;7.552;2022-08-21T11:58:38;6.22;;;1.92;;
68940;SDS011;55982;51.476;7.552;2022-08-21T12:01:07;4.47;;;1.50;;
68940;SDS011;55982;51.476;7.552;2022-08-21T12:03:38;6.30;;;1.50;;
68940;SDS011;55982;51.476;7.552;2022-08-21T12:06:08;4.22;;;1.38;;
68940;SDS011;55982;51.476;7.552;2022-08-21T12:13:33;7.05;;;1.60;;
68940;SDS011;55982;51.476;7.552;2022-08-21T12:16:07;5.50;;;1.85;;
68940;SDS011;55982;51.476;7.552;2022-08-21T12:18:38;5.28;;;1.55;;
68940;SDS011;55982;51.476;7.552;2022-08-21T12:21:15;4.03;;;1.80;;
68940;SDS011;55982;51.476;7.552;2022-08-21T12:23:44;5.85;;;1.60;;
68940;SDS011;55982;51.476;7.552;2022-08-21T12:28:38;4.47;;;1.53;;
68940;SDS011;55982;51.476;7.552;2022-08-21T12:31:04;4.07;;;1.42;;
68940;SDS011;55982;51.476;7.552;2022-08-21T12:33:43;4.70;;;1.45;;
68940;SDS011;55982;51.476;7.552;2022-08-21T12:36:17;2.90;;;1.17;;
68940;SDS011;55982;51.476;7.552;2022-08-21T12:38:52;4.97;;;1.38;;
68940;SDS011;55982;51.476;7.552;2022-08-21T12:41:34;2.70;;;1.25;;
68940;SDS011;55982;51.476;7.552;2022-08-21T12:44:09;2.58;;;1.20;;
68940;SDS011;55982;51.476;7.552;2022-08-21T12:46:43;2.58;;;1.10;;
68940;SDS011;55982;51.476;7.552;2022-08-21T12:49:16;4.55;;;1.10;;
68940;SDS011;55982;51.476;7.552;2022-08-21T12:54:26;3.17;;;1.30;;
68940;SDS011;55982;51.476;7.552;2022-08-21T12:56:58;3.10;;;0.90;;
68940;SDS011;55982;51.476;7.552;2022-08-21T12:59:25;3.20;;;1.40;;
68940;SDS011;55982;51.476;7.552;2022-08-21T13:01:51;4.63;;;1.15;;
68940;SDS011;55982;51.476;7.552;2022-08-21T13:04:21;2.22;;;1.00;;
68940;SDS011;55982;51.476;7.552;2022-08-21T13:06:52;4.35;;;1.13;;
68940;SDS011;55982;51.476;7.552;2022-08-21T13:09:22;2.33;;;1.05;;
68940;SDS011;55982;51.476;7.552;2022-08-21T13:11:50;4.45;;;1.00;;
68940;SDS011;55982;51.476;7.552;2022-08-21T13:14:30;4.38;;;1.33;;
68940;SDS011;55982;51.476;7.552;2022-08-21T13:17:00;2.15;;;1.00;;
68940;SDS011;55982;51.476;7.552;2022-08-21T13:19:29;7.00;;;1.20;;
68940;SDS011;55982;51.476;7.552;2022-08-21T13:21:54;2.88;;;1.08;;
68940;SDS011;55982;51.476;7.552;2022-08-21T13:24:28;4.10;;;1.00;;
68940;SDS011;55982;51.476;7.552;2022-08-21T13:26:57;6.82;;;1.30;;
68940;SDS011;55982;51.476;7.552;2022-08-21T13:29:27;3.10;;;1.30;;
68940;SDS011;55982;51.476;7.552;2022-08-21T13:31:58;2.08;;;0.90;;
68940;SDS011;55982;51.476;7.552;2022-08-21T13:34:35;2.03;;;1.00;;
68940;SDS011;55982;51.476;7.552;2022-08-21T13:37:03;1.90;;;0.80;;
68940;SDS011;55982;51.476;7.552;2022-08-21T13:39:31;1.88;;;0.98;;
68940;SDS011;55982;51.476;7.552;2022-08-21T13:42:02;2.33;;;0.90;;
68940;SDS011;55982;51.476;7.552;2022-08-21T13:44:41;1.70;;;1.00;;
68940;SDS011;55982;51.476;7.552;2022-08-21T13:47:09;1.55;;;0.80;;
68940;SDS011;55982;51.476;7.552;2022-08-21T13:49:37;2.58;;;1.02;;
68940;SDS011;55982;51.476;7.552;2022-08-21T13:52:12;3.10;;;0.93;;
68940;SDS011;55982;51.476;7.552;2022-08-21T13:55:00;3.85;;;1.00;;
68940;SDS011;55982;51.476;7.552;2022-08-21T13:57:33;1.70;;;0.88;;
68940;SDS011;55982;51.476;7.552;2022-08-21T14:00:18;2.65;;;0.90;;
68940;SDS011;55982;51.476;7.552;2022-08-21T14:02:51;1.83;;;1.05;;
68940;SDS011;55982;51.476;7.552;2022-08-21T14:05:22;1.92;;;0.90;;
68940;SDS011;55982;51.476;7.552;2022-08-21T14:07:52;2.28;;;1.05;;
68940;SDS011;55982;51.476;7.552;2022-08-21T14:10:25;4.63;;;1.00;;
68940;SDS011;55982;51.476;7.552;2022-08-21T14:12:56;1.83;;;0.90;;
68940;SDS011;55982;51.476;7.552;2022-08-21T14:15:27;0.85;;;0.70;;
68940;SDS011;55982;51.476;7.552;2022-08-21T14:17:57;2.35;;;0.85;;
68940;SDS011;55982;51.476;7.552;2022-08-21T14:20:34;3.03;;;1.17;;
68940;SDS011;55982;51.476;7.552;2022-08-21T14:23:01;1.67;;;0.93;;
68940;SDS011;55982;51.476;7.552;2022-08-21T14:30:31;4.57;;;1.00;;
68940;SDS011;55982;51.476;7.552;2022-08-21T14:33:00;4.13;;;1.25;;
68940;SDS011;55982;51.476;7.552;2022-08-21T14:35:26;2.63;;;1.05;;
68940;SDS011;55982;51.476;7.552;2022-08-21T14:37:52;2.38;;;0.80;;
68940;SDS011;55982;51.476;7.552;2022-08-21T14:40:19;4.13;;;1.13;;
68940;SDS011;55982;51.476;7.552;2022-08-21T14:42:46;3.03;;;1.20;;
68940;SDS011;55982;51.476;7.552;2022-08-21T14:45:19;2.25;;;0.90;;
68940;SDS011;55982;51.476;7.552;2022-08-21T14:47:50;1.95;;;0.80;;
68940;SDS011;55982;51.476;7.552;2022-08-21T14:50:16;2.78;;;1.00;;
68940;SDS011;55982;51.476;7.552;2022-08-21T14:52:42;3.10;;;1.13;;
68940;SDS011;55982;51.476;7.552;2022-08-21T14:55:10;1.83;;;0.90;;
68940;SDS011;55982;51.476;7.552;2022-08-21T14:57:39;3.35;;;1.20;;
68940;SDS011;55982;51.476;7.552;2022-08-21T15:00:08;1.10;;;0.80;;
68940;SDS011;55982;51.476;7.552;2022-08-21T15:02:35;3.65;;;1.00;;
68940;SDS011;55982;51.476;7.552;2022-08-21T15:05:00;3.85;;;1.23;;
68940;SDS011;55982;51.476;7.552;2022-08-21T15:07:26;2.70;;;1.15;;
68940;SDS011;55982;51.476;7.552;2022-08-21T15:09:51;2.20;;;1.10;;
68940;SDS011;55982;51.476;7.552;2022-08-21T15:12:17;4.07;;;1.30;;
68940;SDS011;55982;51.476;7.552;2022-08-21T15:14:42;4.55;;;1.25;;
68940;SDS011;55982;51.476;7.552;2022-08-21T15:17:08;4.43;;;1.25;;
68940;SDS011;55982;51.476;7.552;2022-08-21T15:19:35;3.22;;;1.00;;
68940;SDS011;55982;51.476;7.552;2022-08-21T15:22:01;4.78;;;1.23;;
68940;SDS011;55982;51.476;7.552;2022-08-21T15:24:26;4.32;;;1.40;;
68940;SDS011;55982;51.476;7.552;2022-08-21T15:26:52;3.63;;;1.10;;
68940;SDS011;55982;51.476;7.552;2022-08-21T15:29:19;1.55;;;1.10;;
68940;SDS011;55982;51.476;7.552;2022-08-21T15:31:53;4.72;;;1.00;;
68940;SDS011;55982;51.476;7.552;2022-08-21T15:34:21;2.10;;;0.90;;
68940;SDS011;55982;51.476;7.552;2022-08-21T15:39:39;2.38;;;0.95;;
68940;SDS011;55982;51.476;7.552;2022-08-21T15:42:05;2.00;;;0.90;;
68940;SDS011;55982;51.476;7.552;2022-08-21T15:44:30;4.68;;;0.80;;
68940;SDS011;55982;51.476;7.552;2022-08-21T15:46:56;3.42;;;1.10;;
68940;SDS011;55982;51.476;7.552;2022-08-21T15:49:22;7.18;;;1.20;;
68940;SDS011;55982;51.476;7.552;2022-08-21T15:51:47;3.20;;;1.25;;
68940;SDS011;55982;51.476;7.552;2022-08-21T15:54:13;3.15;;;1.10;;
68940;SDS011;55982;51.476;7.552;2022-08-21T15:56:39;2.25;;;1.10;;
68940;SDS011;55982;51.476;7.552;2022-08-21T15:59:09;2.25;;;1.00;;
68940;SDS011;55982;51.476;7.552;2022-08-21T16:01:40;2.92;;;1.20;;
68940;SDS011;55982;51.476;7.552;2022-08-21T16:04:06;3.50;;;1.20;;
68940;SDS011;55982;51.476;7.552;2022-08-21T16:06:32;2.75;;;1.25;;
68940;SDS011;55982;51.476;7.552;2022-08-21T16:08:58;5.43;;;1.17;;
68940;SDS011;55982;51.476;7.552;2022-08-21T16:11:25;2.92;;;1.13;;
68940;SDS011;55982;51.476;7.552;2022-08-21T16:13:51;7.07;;;1.10;;